| time (UTC) | temp C | wind direction | speed KPH | gust KPH | rain 1hr cm | rain 24hr cm | rain mn cm | humidity % | barometer mb |
| 20260901142420 | 30 | 178 | 3.2 | 11.3 | 0.00 | 0.00 | 0.00 | 67 | 1016.7 |
| 20260901141445 | 29 | 180 | 1.6 | 12.9 | 0.00 | 0.00 | 0.00 | 68 | 1016.7 |
| 20260901135333 | 28 | 169 | 1.6 | 0.0 | 0.00 | 0.00 | 0.00 | 70 | 1016.7 |
| 20260901134329 | 27 | 146 | 0.0 | 0.0 | 0.00 | 0.00 | 0.00 | 72 | 1016.7 |
| 20260901133333 | 27 | 173 | 0.0 | 0.0 | 0.00 | 0.00 | 0.00 | 74 | 1016.7 |
| 20260901132355 | 26 | 155 | 0.0 | 0.0 | 0.00 | 0.00 | 0.00 | 75 | 1016.7 |
| 20260901131359 | 25 | 148 | 0.0 | 0.0 | 0.00 | 0.00 | 0.00 | 78 | 1016.7 |
| 20260901130416 | 25 | 127 | 0.0 | 0.0 | 0.00 | 0.00 | 0.00 | 80 | 1016.6 |
| 20260901125434 | 24 | 122 | 0.0 | 0.0 | 0.00 | 0.00 | 0.00 | 83 | 1016.5 |
| 20260901124443 | 23 | 122 | 0.0 | 0.0 | 0.00 | 0.00 | 0.00 | 83 | 1016.3 |
| 20260901123504 | 23 | 122 | 0.0 | 0.0 | 0.00 | 0.00 | 0.00 | 83 | 1016.1 |
| 20260901122511 | 23 | 122 | 0.0 | 0.0 | 0.00 | 0.00 | 0.00 | 82 | 1016.0 |
| 20260901121500 | 23 | 122 | 0.0 | 0.0 | 0.00 | 0.00 | 0.00 | 82 | 1015.9 |
| 20260901120433 | 23 | 122 | 0.0 | 0.0 | 0.00 | 0.00 | 0.00 | 82 | 1015.9 |
| 20260901115415 | 23 | 122 | 0.0 | 0.0 | 0.00 | 0.00 | 0.00 | 81 | 1015.7 |
| 20260901114400 | 23 | 122 | 0.0 | 0.0 | 0.00 | 0.00 | 0.00 | 81 | 1015.8 |
| 20260901113348 | 23 | 122 | 0.0 | 0.0 | 0.00 | 0.00 | 0.00 | 81 | 1015.7 |
| 20260901112326 | 23 | 122 | 0.0 | 0.0 | 0.00 | 0.00 | 0.00 | 79 | 1015.6 |
| 20260901111259 | 23 | 146 | 0.0 | 0.0 | 0.00 | 0.00 | 0.00 | 78 | 1015.4 |
| 20260901110319 | 23 | 146 | 0.0 | 0.0 | 0.00 | 0.00 | 0.00 | 78 | 1015.3 |
| 20260901105342 | 23 | 146 | 0.0 | 0.0 | 0.00 | 0.00 | 0.00 | 77 | 1015.3 |
| 20260901103304 | 24 | 146 | 0.0 | 0.0 | 0.00 | 0.00 | 0.00 | 76 | 1015.2 |
| 20260901102313 | 25 | 146 | 0.0 | 4.8 | 0.00 | 0.00 | 0.00 | 76 | 1015.2 |
| 20260901101330 | 25 | 150 | 0.0 | 4.8 | 0.00 | 0.00 | 0.00 | 76 | 1015.2 |
| 20260901100259 | 25 | 140 | 0.0 | 4.8 | 0.00 | 0.00 | 0.00 | 76 | 1015.1 |
| 20260901095249 | 24 | 144 | 1.6 | 4.8 | 0.00 | 0.00 | 0.00 | 76 | 1015.3 |
| 20260901094309 | 24 | 144 | 1.6 | 4.8 | 0.00 | 0.00 | 0.00 | 77 | 1015.3 |
| 20260901093246 | 24 | 128 | 0.0 | 3.2 | 0.00 | 0.00 | 0.00 | 77 | 1015.3 |
| 20260901092305 | 23 | 112 | 0.0 | 3.2 | 0.00 | 0.00 | 0.00 | 76 | 1015.3 |
| 20260901091305 | 23 | 101 | 0.0 | 0.0 | 0.00 | 0.00 | 0.00 | 76 | 1015.4 |
| 20260901085137 | 24 | 101 | 0.0 | 0.0 | 0.00 | 0.00 | 0.00 | 75 | 1015.3 |
| 20260901084141 | 24 | 102 | 0.0 | 0.0 | 0.00 | 0.00 | 0.00 | 75 | 1015.2 |
| 20260901083114 | 24 | 103 | 0.0 | 0.0 | 0.00 | 0.00 | 0.00 | 74 | 1015.2 |
| 20260901082116 | 24 | 104 | 0.0 | 0.0 | 0.00 | 0.00 | 0.00 | 73 | 1015.2 |
| 20260901081116 | 24 | 104 | 0.0 | 0.0 | 0.00 | 0.00 | 0.00 | 73 | 1015.0 |
| 20260901080118 | 24 | 105 | 0.0 | 0.0 | 0.00 | 0.00 | 0.00 | 72 | 1015.0 |
| 20260901075045 | 24 | 101 | 0.0 | 1.6 | 0.00 | 0.00 | 0.00 | 73 | 1015.1 |
| 20260901074105 | 25 | 101 | 0.0 | 0.0 | 0.00 | 0.00 | 0.00 | 71 | 1015.1 |
| 20260901073115 | 25 | 104 | 0.0 | 0.0 | 0.00 | 0.00 | 0.00 | 71 | 1014.9 |
| 20260901072109 | 25 | 106 | 0.0 | 0.0 | 0.00 | 0.00 | 0.00 | 70 | 1014.9 |
| 20260901071128 | 25 | 107 | 0.0 | 0.0 | 0.00 | 0.00 | 0.00 | 69 | 1014.9 |
| 20260901070121 | 25 | 107 | 0.0 | 0.0 | 0.00 | 0.00 | 0.00 | 69 | 1014.9 |
| 20260901065118 | 26 | 107 | 0.0 | 0.0 | 0.00 | 0.00 | 0.00 | 67 | 1014.9 |
| 20260901064101 | 26 | 107 | 0.0 | 0.0 | 0.00 | 0.00 | 0.00 | 65 | 1014.9 |
| 20260901063040 | 26 | 108 | 0.0 | 0.0 | 0.00 | 0.00 | 0.00 | 64 | 1014.9 |
| 20260901062025 | 27 | 108 | 0.0 | 0.0 | 0.00 | 0.00 | 0.00 | 63 | 1014.8 |
| 20260901061012 | 27 | 108 | 0.0 | 3.2 | 0.00 | 0.00 | 0.00 | 62 | 1014.7 |
| 20260901054919 | 27 | 119 | 1.6 | 6.4 | 0.00 | 0.00 | 0.00 | 62 | 1014.5 |
| 20260901053846 | 27 | 143 | 4.8 | 11.3 | 0.00 | 0.00 | 0.00 | 62 | 1014.4 |
| 20260901052831 | 27 | 123 | 3.2 | 11.3 | 0.00 | 0.00 | 0.00 | 62 | 1014.5 |
| 20260901051759 | 27 | 118 | 4.8 | 11.3 | 0.00 | 0.00 | 0.00 | 62 | 1014.5 |
| 20260901050737 | 26 | 121 | 3.2 | 11.3 | 0.00 | 0.00 | 0.00 | 63 | 1014.3 |
| 20260901045705 | 26 | 110 | 0.0 | 4.8 | 0.00 | 0.00 | 0.00 | 65 | 1014.2 |
| 20260901044719 | 26 | 115 | 0.0 | 3.2 | 0.00 | 0.00 | 0.00 | 66 | 1014.1 |
| 20260901043712 | 26 | 83 | 0.0 | 0.0 | 0.00 | 0.00 | 0.00 | 65 | 1014.1 |
| 20260901041545 | 26 | 83 | 0.0 | 0.0 | 0.00 | 0.00 | 0.00 | 63 | 1014.1 |
| 20260901040534 | 26 | 83 | 0.0 | 0.0 | 0.00 | 0.00 | 0.00 | 62 | 1014.1 |
| 20260901035536 | 27 | 83 | 0.0 | 0.0 | 0.00 | 0.00 | 0.00 | 61 | 1014.0 |
| 20260901034509 | 27 | 83 | 0.0 | 0.0 | 0.00 | 0.00 | 0.00 | 61 | 1014.1 |
| 20260901033523 | 27 | 83 | 0.0 | 0.0 | 0.00 | 0.00 | 0.00 | 59 | 1014.0 |
| 20260901032509 | 27 | 84 | 0.0 | 0.0 | 0.00 | 0.00 | 0.00 | 58 | 1013.9 |
| 20260901031438 | 28 | 84 | 0.0 | 0.0 | 0.00 | 0.00 | 0.00 | 56 | 1013.8 |
| 20260901030423 | 28 | 84 | 0.0 | 0.0 | 0.00 | 0.00 | 0.00 | 57 | 1013.8 |
| 20260901025418 | 28 | 84 | 0.0 | 0.0 | 0.00 | 0.00 | 0.00 | 57 | 1013.5 |
| 20260901024418 | 28 | 102 | 0.0 | 3.2 | 0.00 | 0.00 | 0.00 | 56 | 1013.4 |
| 20260901023354 | 28 | 104 | 0.0 | 1.6 | 0.00 | 0.00 | 0.00 | 55 | 1013.3 |
| 20260901022352 | 28 | 104 | 0.0 | 0.0 | 0.00 | 0.00 | 0.00 | 54 | 1013.1 |
| 20260901021320 | 29 | 107 | 0.0 | 0.0 | 0.00 | 0.00 | 0.00 | 51 | 1013.1 |
| 20260901015156 | 30 | 146 | 0.0 | 0.0 | 0.00 | 0.00 | 0.00 | 48 | 1012.8 |
| 20260901014155 | 31 | 146 | 0.0 | 0.0 | 0.00 | 0.00 | 0.00 | 48 | 1012.7 |
| 20260901013204 | 31 | 146 | 0.0 | 0.0 | 0.00 | 0.00 | 0.00 | 46 | 1012.8 |
| 20260901011032 | 33 | 173 | 0.0 | 0.0 | 0.00 | 0.00 | 0.00 | 42 | 1012.6 |
| 20260901010032 | 34 | 173 | 0.0 | 0.0 | 0.00 | 0.00 | 0.00 | 40 | 1012.7 |
| 20260901003849 | 35 | 184 | 3.2 | 12.9 | 0.00 | 0.00 | 0.00 | 37 | 1012.6 |
| 20260901001747 | 36 | 154 | 6.4 | 16.1 | 0.00 | 0.00 | 0.00 | 35 | 1012.5 |
| 20260901000800 | 36 | 150 | 4.8 | 16.1 | 0.00 | 0.00 | 0.00 | 35 | 1012.5 |
| 20260831235819 | 36 | 128 | 4.8 | 9.7 | 0.00 | 0.00 | 0.00 | 33 | 1012.4 |
| 20260831234810 | 37 | 171 | 6.4 | 14.5 | 0.00 | 0.00 | 0.00 | 33 | 1012.5 |
| 20260831233802 | 37 | 182 | 8.0 | 16.1 | 0.00 | 0.00 | 0.00 | 32 | 1012.6 |
| 20260831232738 | 37 | 182 | 8.0 | 16.1 | 0.00 | 0.00 | 0.00 | 31 | 1012.5 |
| 20260831230603 | 37 | 159 | 9.7 | 17.7 | 0.00 | 0.00 | 0.00 | 31 | 1012.6 |
| 20260831224401 | 38 | 167 | 4.8 | 12.9 | 0.00 | 0.00 | 0.00 | 31 | 1012.6 |
| 20260831223347 | 38 | 120 | 6.4 | 16.1 | 0.00 | 0.00 | 0.00 | 31 | 1012.7 |
| 20260831222356 | 38 | 121 | 6.4 | 20.9 | 0.00 | 0.00 | 0.00 | 30 | 1012.7 |
| 20260831221402 | 38 | 155 | 8.0 | 20.9 | 0.00 | 0.00 | 0.00 | 31 | 1012.7 |
| 20260831220343 | 38 | 170 | 9.7 | 20.9 | 0.00 | 0.00 | 0.00 | 30 | 1012.8 |
| 20260831215401 | 38 | 161 | 3.2 | 17.7 | 0.00 | 0.00 | 0.00 | 31 | 1012.8 |
| 20260831214408 | 37 | 204 | 4.8 | 12.9 | 0.00 | 0.00 | 0.00 | 32 | 1013.0 |
| 20260831213344 | 36 | 195 | 4.8 | 17.7 | 0.00 | 0.00 | 0.00 | 32 | 1013.1 |
| 20260831211243 | 37 | 144 | 6.4 | 17.7 | 0.00 | 0.00 | 0.00 | 31 | 1013.3 |
| 20260831210250 | 37 | 130 | 0.0 | 3.2 | 0.00 | 0.00 | 0.00 | 32 | 1013.4 |
| 20260831205258 | 38 | 136 | 3.2 | 22.5 | 0.00 | 0.00 | 0.00 | 31 | 1013.5 |
| 20260831204253 | 38 | 157 | 9.7 | 22.5 | 0.00 | 0.00 | 0.00 | 31 | 1013.7 |
| 20260831203315 | 38 | 187 | 11.3 | 20.9 | 0.00 | 0.00 | 0.00 | 32 | 1013.9 |
| 20260831202326 | 38 | 193 | 9.7 | 27.4 | 0.00 | 0.00 | 0.00 | 31 | 1014.0 |
| 20260831200143 | 37 | 144 | 6.4 | 16.1 | 0.00 | 0.00 | 0.00 | 34 | 1014.2 |
| 20260831195145 | 37 | 144 | 4.8 | 20.9 | 0.00 | 0.00 | 0.00 | 32 | 1014.4 |
| 20260831194122 | 37 | 123 | 11.3 | 20.9 | 0.00 | 0.00 | 0.00 | 29 | 1014.6 |
| 20260831193143 | 37 | 153 | 1.6 | 16.1 | 0.00 | 0.00 | 0.00 | 35 | 1014.7 |
| 20260831192132 | 37 | 233 | 4.8 | 17.7 | 0.00 | 0.00 | 0.00 | 34 | 1014.8 |
| 20260831191107 | 37 | 188 | 4.8 | 19.3 | 0.00 | 0.00 | 0.00 | 35 | 1014.8 |
| 20260831190042 | 37 | 234 | 9.7 | 20.9 | 0.00 | 0.00 | 0.00 | 36 | 1014.9 |
| 20260831185050 | 37 | 170 | 4.8 | 30.6 | 0.00 | 0.00 | 0.00 | 37 | 1014.9 |
| 20260831184030 | 37 | 155 | 9.7 | 30.6 | 0.00 | 0.00 | 0.00 | 36 | 1015.2 |
| 20260831181949 | 36 | 155 | 6.4 | 24.1 | 0.00 | 0.00 | 0.00 | 38 | 1015.5 |
| 20260831181013 | 36 | 181 | 8.0 | 22.5 | 0.00 | 0.00 | 0.00 | 38 | 1015.6 |
| 20260831175958 | 36 | 234 | 6.4 | 17.7 | 0.00 | 0.00 | 0.00 | 40 | 1015.8 |
| 20260831175007 | 36 | 182 | 6.4 | 22.5 | 0.00 | 0.00 | 0.00 | 39 | 1015.9 |
| 20260831173939 | 36 | 214 | 11.3 | 27.4 | 0.00 | 0.00 | 0.00 | 41 | 1016.0 |
| 20260831172938 | 35 | 232 | 9.7 | 27.4 | 0.00 | 0.00 | 0.00 | 42 | 1016.2 |
| 20260831171948 | 35 | 178 | 9.7 | 27.4 | 0.00 | 0.00 | 0.00 | 43 | 1016.2 |
| 20260831170927 | 35 | 221 | 11.3 | 20.9 | 0.00 | 0.00 | 0.00 | 42 | 1016.4 |
| 20260831165922 | 35 | 201 | 8.0 | 17.7 | 0.00 | 0.00 | 0.00 | 44 | 1016.4 |
| 20260831164936 | 34 | 242 | 9.7 | 24.1 | 0.00 | 0.00 | 0.00 | 45 | 1016.4 |
| 20260831162820 | 34 | 219 | 8.0 | 19.3 | 0.00 | 0.00 | 0.00 | 46 | 1016.5 |
| 20260831161831 | 33 | 215 | 8.0 | 16.1 | 0.00 | 0.00 | 0.00 | 46 | 1016.6 |
| 20260831160831 | 33 | 186 | 9.7 | 19.3 | 0.00 | 0.00 | 0.00 | 46 | 1016.5 |
| 20260831155823 | 32 | 208 | 11.3 | 22.5 | 0.00 | 0.00 | 0.00 | 45 | 1016.6 |
| 20260831154816 | 32 | 202 | 9.7 | 22.5 | 0.00 | 0.00 | 0.00 | 46 | 1016.6 |
| 20260831153828 | 32 | 191 | 11.3 | 19.3 | 0.00 | 0.00 | 0.00 | 47 | 1016.5 |
| 20260831152823 | 31 | 231 | 4.8 | 16.1 | 0.00 | 0.00 | 0.00 | 52 | 1016.5 |
| 20260831150614 | 30 | 202 | 6.4 | 16.1 | 0.00 | 0.00 | 0.00 | 57 | 1016.4 |
| 20260831145543 | 30 | 173 | 6.4 | 14.5 | 0.00 | 0.00 | 0.00 | 59 | 1016.5 |
| 20260831144554 | 30 | 172 | 6.4 | 14.5 | 0.00 | 0.00 | 0.00 | 60 | 1016.4 |
| 20260831143557 | 29 | 221 | 6.4 | 14.5 | 0.00 | 0.00 | 0.00 | 62 | 1016.4 |